Details for Norwegian Air International at LEAL




Go Back


Latest METAR
Local Time

LEAL 241330Z 10007KT 070V150 9999 FEW032TCU 13/06 Q1007 NOSIG

24/02/2018, 14:53:52

Description
Results
Norwegian Air International Logo
Number of Pilots based at LEAL
0 Pilots Based here
Number of Norwegian Air International Flights Departed from LEAL
1 Flights Departed
Number of Norwegian Air International Flights Arrived at LEAL
0 Flights Arrived
Number of Norwegian Air International Schedules Departing from LEAL
150 Schedules
Number of Norwegian Air International Schedules Arriving at LEAL
157 Schedules
Number of Norwegian Air International Schedules Departing from LEAL availible today
37 Schedules Today
Number of Norwegian Air International Schedules Arriving at LEAL availible today
36 Schedules Today
Average Landing Rate at LEAL
-245 fpm
Norwegian Air International Average Landing Rate at LEAL
0 fpm
Total Fuel Purchased at LEAL by Norwegian Air International
7,098.72 kgs / 15,649.84 lbs

Pilots Based at LEAL


Pilot ID
Pilot Name
Pilot Rank
No. of Flights
No. of Flying Hours
There are no pilots assigned to this hub!   Will you be the first?
Content